Logo AVAMET
Benvolgut visitant, si us plau, ingressa Recuperar contrasenya

València Jesús

Dades diàries. Acumulats / Últims 30 dies disponibles

Data Temperatura (°C) Humitat rel. (%) Pressió rel. (hPa) Vent (km/h) Precipitació
Mínima Mitjana Màxima Amplitud
tèrmica
Mínima Mitjana Màxima Mínima Mitjana Màxima Predom. Mitjana Ràfega
màxima
Total
(mm)
Índex-n
Mínima Mitjana Màxima Mínima Mitjana Màxima n
0 a 1
P0 max
mm 5'
Dades mensuals acumulades fins l'últim dia disponible
12/2019 9,8 11,6 14,0 9,5 13,3 15,2 19,6 9,8 1 55 96 1.003 1.012 1.021   5,1 46,7 55,0
Dades anuals acumulades fins l'últim dia disponible
2019 2,5 15,3 27,5 18,7 12,2 23,7 41,7 39,2 0 60 98 0 1.015 1.034   4,1 67,6 261,2
Últims 30 dies disponibles
05-12-2019 10,9     9,6     13,3 2,4 1 70 96 1.008 1.015 1.021 NE 4,6 29,0 14,8
04-12-2019 11,2     8,3     14,4 3,2 1 56 96 1.003 1.005 1.010 E 4,0 46,7 22,2
03-12-2019 9,8     7,3     14,2 4,4 1 50 90 1.011 1.014 1.016 NE 5,4 33,8 8,2 0,36 1,50
02-12-2019 11,9         14,7 2,8 1 52 86 1.011 1.013 1.017 ENE 7,5 43,5 9,8 0,36 1,00
01-12-2019 14,0     12,6     19,6 5,6 1 48 83 1.009 1.010 1.012 SE 4,2 29,0 0,0
30-11-2019 13,8     14,6     22,7 8,9 1 49 80 1.012 1.016 1.019 S 3,5 27,4 0,0
29-11-2019 15,4     14,1     23,1 7,7 1 48 73 1.014 1.017 1.019 S 3,6 25,7 0,0
28-11-2019 14,4     13,4     19,3 4,9 1 48 66 1.012 1.014 1.016 S 5,4 35,4 0,0
27-11-2019 16,3     14,7     20,8 4,5 1 43 67 1.006 1.009 1.012 S 6,1 53,1 0,0
26-11-2019 14,9     15,5     22,8 7,9 1 49 72 1.007 1.010 1.013 S 4,8 43,5 0,0
25-11-2019 12,8     14,1     21,9 9,1 1 48 71 1.010 1.012 1.013 SSO 5,7 37,0 0,0
24-11-2019 10,7     12,1     19,3 8,6 1 38 60 1.006 1.009 1.012 SSO 5,1 29,0 0,0
23-11-2019 12,8     11,3     18,1 5,3 1 35 70 991 997 1.006 S 6,7 46,7 0,0
22-11-2019 11,4     11,3     16,8 5,4 1 61 92 992 1.000 1.007 SE 2,2 29,0 1,2 0,58 0,60
21-11-2019 9,3     11,1     16,4 7,1 1 56 81 1.006 1.007 1.009 SSE 2,3 25,7 0,0
20-11-2019 8,2     10,3     17,3 9,1 1 48 81 1.008 1.010 1.014 SSE 2,0 20,9 2,0 0,39 0,60
19-11-2019 6,0     9,7     17,6 11,6 1 43 67 1.012 1.014 1.017 SSE 2,4 19,3 0,0
18-11-2019 9,9     10,4     16,9 7,0 1 44 79 1.006 1.009 1.015 SSE 2,2 24,1 0,2
17-11-2019 7,3     10,1     15,7 8,4 1 45 79 1.007 1.011 1.013 SSO 5,5 46,7 0,8
16-11-2019 7,1     10,0     17,6 10,5 1 38 66 1.005 1.010 1.013 SSE 1,7 20,9 0,0
15-11-2019 9,4     10,4     16,3 6,9 1 40 61 998 1.001 1.005 SSO 5,2 37,0 0,0
14-11-2019 10,3     10,7     17,6 7,3 1 46 74 998 1.001 1.007 S 5,6 41,8 0,0
13-11-2019 13,2     12,6     19,6 6,4 1 55 83 1.003 1.006 1.009 SE 3,3 27,4 0,4
12-11-2019 12,9     13,1     20,8 7,9 1 31 47 1.008 1.010 1.012 SSE 3,8 32,2 0,0
11-11-2019 10,0     12,1     19,1 9,1 1 35 54 1.009 1.011 1.013 SE 6,7 45,1 0,0
10-11-2019 11,7     11,6     17,6 5,9 1 34 68 1.009 1.011 1.013 ESE 6,7 43,5 0,0
09-11-2019 12,6     13,2     19,7 7,1 1 35 62 1.012 1.015 1.018 SSO 8,4 38,6 0,0
08-11-2019 11,0     11,9     17,8 6,8 1 34 57 1.007 1.011 1.015 SSO 6,0 43,5 0,0
07-11-2019 12,3     14,1     22,4 10,1 1 38 66 1.005 1.008 1.011 S 5,7 40,2 0,0
06-11-2019 12,8     14,7     23,7 10,9 1 35 61 1.010 1.011 1.012 SSE 2,4 24,1 0,0
Últims 13 mesos disponibles
11/2019 6,0 12,6 21,3 13,2 15,7 20,2 29,3 23,3 31 43 61 997 1.009 1.017 SSO 5,1 54,7 4,6
10/2019 11,9 16,9 21,1 18,0 17,2 25,7 35,3 23,4 34 55 67 1.003 1.014 1.020 SSE 2,6 40,2 11,4
09/2019 16,2 20,8 24,0 21,9 21,2 28,1 34,7 18,5 37 62 71 1.008 1.016 1.023 SE 4,2 54,7 82,6
08/2019 18,8 23,1 27,5 27,2 27,3 31,1 41,7 22,9 40 68 78 1.009 1.014 1.018 ESE 4,1 54,7 11,4
07/2019 21,9 23,4 25,8 27,2 28,3 31,1 37,8 15,9 49 65 75 1.003 1.012 1.019 SSE 4,0 41,8 5,0
06/2019 14,1 18,9 23,0 23,0 21,7 27,2 35,3 21,2 38 63 79 1.007 1.014 1.020 SSE 4,2 57,9 0,0
05/2019 10,1 15,2 20,9 19,1 19,0 23,1 32,7 22,6 45 65 84 1.003 1.014 1.023 SE 4,2 49,9 16,6
04/2019 9,2 11,7 14,5 15,4 13,8 19,5 29,8 20,6 42 65 96 998 1.010 1.018 S 6,4 67,6 59,4
03/2019 7,3 10,4 16,2 15,4 13,4 20,2 29,3 22,0 41 56 84 1.008 1.021 1.028 SSE 3,6 56,3 15,0
02/2019 4,9 8,1 11,1 13,2 12,8 18,2 25,4 20,5 33 61 74 993 1.023 1.032 ESE 3,4 59,5 0,0
01/2019 2,5 7,2 12,9 12,3 12,2 17,1 20,6 18,1 37 55 74 1.000 1.017 1.029 SE 3,5 54,7 0,2
12/2018 5,4 9,4 12,8 13,4 14,4 18,9 23,7 18,3 48 68 82 1.007 1.024 1.029 SO 2,5 43,5 10,0
11/2018 7,3 11,8 16,5 14,9 14,8 18,9 24,3 17,0 50 71 93 1.000 1.014 1.022 SSO 4,1 57,9 97,4
Tots els anys disponibles
2017 1,4 15,0 26,6 19,1 9,3 23,3 36,8 35,4 31 64 90 996 1.017 1.035 S 1,1 69,0 316,0
2016 3,3 15,1 25,8 18,9 11,1 22,8 36,6 33,3 32 64 89 994 1.017 1.036 71,0 569,8
Temperatura (°C)
Humitat relativa (%)
Velocitat del vent i ràfega màxima (km/h)
Direcció del vent (°)
Pressió (hPa)
Precipitació (mm)
Nota sobre les dades: s'avisa a l'usuari de la provisionalitat i no oficialitat d'aquestes dades
Logo AVAMET blanc
Web allotjada a Sollutia
Llicència de Creative CommonsLa web d'AVAMET i els seus continguts estan subjectes a una llicència de
Reconeixement - No Comercial - Compartir igual
Últimes estacions: Aielo de Malferit - Centre (Soci), Faura (Inforatge), Benifairó de les Valls (Inforatge), Xàbia - Les Valls (Soci), Xàbia - Alt de la Granadella (Soci), Villena - Sierra de Salinas (Soci), Sueca - Centre (Inforatge) - - -